NCAR-RAP Real-Time Weather Data

Output produced by METARs form (23 November 2017  11:03 UTC)
found at http://weather.rap.ucar.edu/surface/
 
Conditions at: KLOU observed 23 November 2017  10:53 UTC
Temperature: -3.3°C (26°F)
Dewpoint: -3.9°C (25°F) [RH = 96%]
Pressure (altimeter): 30.20 inches Hg (1022.8 mb)
[Sea-level pressure: 1023.2 mb]
Winds: calm
Visibility: 7 miles (11 km)
Ceiling: at least 12,000 feet AGL
Clouds: sky clear below 12,000 feet AGL
Present Weather: automated observation with no human augmentation;
there may or may not be significant weather present at this time
KLOU 231053Z AUTO 00000KT 7SM CLR M03/M04 A3020 RMK AO2 SLP232 I1000 T10331039